createdAt,value
2023-11-25T00:00:28.282Z,0.70
2023-11-25T00:03:17.646Z,0.90
2023-11-25T00:06:06.413Z,0.70
2023-11-25T00:08:54.785Z,0.90
2023-11-25T00:11:44.737Z,0.77
2023-11-25T00:14:33.166Z,0.70
2023-11-25T00:17:23.612Z,0.80
2023-11-25T00:20:12.859Z,0.70
2023-11-25T00:23:01.271Z,0.90
2023-11-25T00:25:50.064Z,0.67
2023-11-25T00:28:39.792Z,0.70
2023-11-25T00:31:28.292Z,0.63
2023-11-25T00:34:17.679Z,0.60
2023-11-25T00:37:07.427Z,0.70
2023-11-25T00:39:55.949Z,0.77
2023-11-25T00:42:44.475Z,0.70
2023-11-25T00:45:34.306Z,0.70
2023-11-25T00:48:22.949Z,0.70
2023-11-25T00:51:11.413Z,0.80
2023-11-25T00:53:59.856Z,0.70
2023-11-25T00:56:48.222Z,0.70
2023-11-25T00:59:36.493Z,0.60
2023-11-25T01:02:26.952Z,0.67
2023-11-25T01:05:15.519Z,0.70
2023-11-25T01:08:03.914Z,0.60
2023-11-25T01:10:53.061Z,0.60
2023-11-25T01:13:41.516Z,0.67
2023-11-25T01:16:30.069Z,0.67
2023-11-25T01:19:20.118Z,0.67
2023-11-25T01:22:08.668Z,0.90
2023-11-25T01:24:57.774Z,0.60
2023-11-25T01:27:46.192Z,0.60
2023-11-25T01:30:35.529Z,0.70
2023-11-25T01:33:24.095Z,0.60
2023-11-25T01:36:13.953Z,0.70
2023-11-25T01:39:02.448Z,0.67
2023-11-25T01:41:52.037Z,0.63
2023-11-25T01:44:40.476Z,0.50
2023-11-25T01:47:29.072Z,0.60
2023-11-25T01:50:17.672Z,0.67
2023-11-25T01:53:08.895Z,0.67
2023-11-25T01:55:59.664Z,0.60
2023-11-25T01:58:48.469Z,0.60
2023-11-25T02:01:37.006Z,0.50
2023-11-25T02:04:25.567Z,0.67
2023-11-25T02:07:14.203Z,0.50
2023-11-25T02:10:04.040Z,0.67
2023-11-25T02:12:52.437Z,0.63
2023-11-25T02:15:42.248Z,0.50
2023-11-25T02:18:30.837Z,0.67
2023-11-25T02:21:21.189Z,0.60
2023-11-25T02:24:11.645Z,0.60
2023-11-25T02:27:01.358Z,0.60
2023-11-25T02:29:51.002Z,0.60
2023-11-25T02:32:39.644Z,0.70
2023-11-25T02:35:28.132Z,0.60
2023-11-25T02:38:17.135Z,0.50
2023-11-25T02:41:07.378Z,0.60
2023-11-25T02:43:55.823Z,0.60
2023-11-25T02:46:46.473Z,0.60
2023-11-25T02:49:35.102Z,0.50
2023-11-25T02:52:27.515Z,0.60
2023-11-25T02:55:17.351Z,0.60
2023-11-25T02:58:08.454Z,0.60
2023-11-25T03:01:02.788Z,0.60
2023-11-25T03:03:51.397Z,0.60
2023-11-25T03:06:40.004Z,0.60
2023-11-25T03:09:29.247Z,0.50
2023-11-25T03:12:17.683Z,0.60
2023-11-25T03:15:08.542Z,0.60
2023-11-25T03:17:57.036Z,0.50
2023-11-25T03:20:45.703Z,0.63
2023-11-25T03:23:34.072Z,0.70
2023-11-25T03:26:24.003Z,0.60
2023-11-25T03:29:12.497Z,0.70
2023-11-25T03:32:02.380Z,0.60
2023-11-25T03:34:51.347Z,0.50
2023-11-25T03:37:39.887Z,0.60
2023-11-25T03:40:28.501Z,0.50
2023-11-25T03:43:17.035Z,0.40
2023-11-25T03:46:05.609Z,0.50
2023-11-25T03:48:55.520Z,0.50
2023-11-25T03:51:43.958Z,0.60
2023-11-25T03:54:32.264Z,0.50
2023-11-25T03:57:21.630Z,0.60
2023-11-25T04:00:16.318Z,0.63
2023-11-25T04:03:05.144Z,0.50
2023-11-25T04:05:55.027Z,0.40
2023-11-25T04:08:43.407Z,0.60
2023-11-25T04:11:31.724Z,0.43
2023-11-25T04:14:20.254Z,0.50
2023-11-25T04:17:12.780Z,0.70
2023-11-25T04:20:01.581Z,0.50
2023-11-25T04:22:51.366Z,0.50
2023-11-25T04:25:41.100Z,0.50
2023-11-25T04:28:29.698Z,0.60
2023-11-25T04:31:18.459Z,0.60
2023-11-25T04:34:07.103Z,0.60
2023-11-25T04:36:55.562Z,0.50
2023-11-25T04:39:45.701Z,0.50
2023-11-25T04:42:34.460Z,0.63
2023-11-25T04:45:22.961Z,0.50
2023-11-25T04:48:11.463Z,0.50
2023-11-25T04:51:00.679Z,0.60
2023-11-25T04:53:49.306Z,0.50
2023-11-25T04:56:39.376Z,0.60
2023-11-25T04:59:27.777Z,0.50
2023-11-25T05:02:17.640Z,0.50
2023-11-25T05:05:07.493Z,0.63
2023-11-25T05:07:55.958Z,0.50
2023-11-25T05:10:44.468Z,0.60
2023-11-25T05:13:34.291Z,0.60
2023-11-25T05:16:23.068Z,0.60
2023-11-25T05:19:11.559Z,0.60
2023-11-25T05:21:59.961Z,0.63
2023-11-25T05:24:48.354Z,0.60
2023-11-25T05:27:37.309Z,0.60
2023-11-25T05:30:27.057Z,0.60
2023-11-25T05:33:15.371Z,0.60
2023-11-25T05:36:04.734Z,0.70
2023-11-25T05:38:53.418Z,0.50
2023-11-25T05:41:42.717Z,0.53
2023-11-25T05:44:32.752Z,0.60
2023-11-25T05:47:22.937Z,0.70
2023-11-25T05:50:11.880Z,0.77
2023-11-25T05:53:01.745Z,0.60
2023-11-25T05:55:50.302Z,0.60
2023-11-25T05:58:38.842Z,0.70
2023-11-25T06:01:28.008Z,0.60
2023-11-25T06:04:21.541Z,0.60
2023-11-25T06:07:10.673Z,0.60
2023-11-25T06:09:59.008Z,0.60
2023-11-25T06:12:47.697Z,0.60
2023-11-25T06:15:36.223Z,0.60
2023-11-25T06:18:25.859Z,0.70
2023-11-25T06:21:15.865Z,0.70
2023-11-25T06:24:05.554Z,0.60
2023-11-25T06:26:54.903Z,0.60
2023-11-25T06:29:44.531Z,0.60
2023-11-25T06:32:34.466Z,0.70
2023-11-25T06:35:24.940Z,0.70
2023-11-25T06:38:15.010Z,0.60
2023-11-25T06:41:03.823Z,0.70
2023-11-25T06:43:52.303Z,0.80
2023-11-25T06:46:40.924Z,0.70
2023-11-25T06:49:29.518Z,0.70
2023-11-25T06:52:17.874Z,0.60
2023-11-25T06:55:10.977Z,0.60
2023-11-25T06:57:59.519Z,0.70
2023-11-25T07:00:48.030Z,0.70
2023-11-25T07:03:37.175Z,1.43
2023-11-25T07:06:25.900Z,1.60
2023-11-25T07:09:15.292Z,1.70
2023-11-25T07:12:05.843Z,1.30
2023-11-25T07:14:55.522Z,1.40
2023-11-25T07:17:44.240Z,1.30
2023-11-25T07:20:33.763Z,1.33
2023-11-25T07:23:22.160Z,1.23
2023-11-25T07:26:13.121Z,1.20
2023-11-25T07:29:03.970Z,1.33
2023-11-25T07:31:53.095Z,1.00
2023-11-25T07:34:42.232Z,1.20
2023-11-25T07:37:30.709Z,1.10
2023-11-25T07:40:19.256Z,1.13
2023-11-25T07:43:07.819Z,1.10
2023-11-25T07:45:57.756Z,1.00
2023-11-25T07:48:46.632Z,1.10
2023-11-25T07:51:35.643Z,1.00
2023-11-25T07:54:25.017Z,1.00
2023-11-25T07:57:13.540Z,1.13
2023-11-25T08:00:01.950Z,0.80
2023-11-25T08:02:51.764Z,1.00
2023-11-25T08:05:40.293Z,1.33
2023-11-25T08:08:28.730Z,0.97
2023-11-25T08:11:24.838Z,0.80
2023-11-25T08:14:14.806Z,0.80
2023-11-25T08:17:03.492Z,0.90
2023-11-25T08:19:53.463Z,0.80
2023-11-25T08:22:42.172Z,0.80
2023-11-25T08:25:30.969Z,0.80
2023-11-25T08:28:19.365Z,0.93
2023-11-25T08:31:08.162Z,0.83
2023-11-25T08:33:56.819Z,0.80
2023-11-25T08:36:54.319Z,0.80
2023-11-25T08:39:44.052Z,1.10
2023-11-25T08:42:32.606Z,0.87
2023-11-25T08:45:21.773Z,0.80
2023-11-25T08:48:11.878Z,0.90
2023-11-25T08:51:00.262Z,1.10
2023-11-25T08:53:51.588Z,1.00
2023-11-25T08:56:42.396Z,1.10
2023-11-25T08:59:32.614Z,0.90
2023-11-25T09:02:23.943Z,1.03
2023-11-25T09:05:16.291Z,1.10
2023-11-25T09:08:08.256Z,0.90
2023-11-25T09:10:59.034Z,1.00
2023-11-25T09:13:47.490Z,1.13
2023-11-25T09:16:36.046Z,1.00
2023-11-25T09:19:24.893Z,0.90
2023-11-25T09:22:14.309Z,1.00
2023-11-25T09:25:02.853Z,1.10
2023-11-25T09:27:53.428Z,0.97
2023-11-25T09:30:41.973Z,0.90
2023-11-25T09:33:30.371Z,0.77
2023-11-25T09:36:18.803Z,1.17
2023-11-25T09:39:11.003Z,0.90
2023-11-25T09:42:01.039Z,0.90
2023-11-25T09:44:51.681Z,0.90
2023-11-25T09:47:40.389Z,0.70
2023-11-25T09:50:28.854Z,1.03
2023-11-25T09:53:24.865Z,0.70
2023-11-25T09:56:15.348Z,0.87
2023-11-25T09:59:04.490Z,0.83
2023-11-25T10:01:54.380Z,0.80
2023-11-25T10:04:43.771Z,1.03
2023-11-25T10:07:32.282Z,1.00
2023-11-25T10:10:25.417Z,1.33
2023-11-25T10:13:16.302Z,1.07
2023-11-25T10:16:05.601Z,1.10
2023-11-25T10:18:55.495Z,1.40
2023-11-25T10:21:43.872Z,1.10
2023-11-25T10:24:32.370Z,0.90
2023-11-25T10:27:20.986Z,1.20
2023-11-25T10:30:10.902Z,1.33
2023-11-25T10:33:02.876Z,1.03
2023-11-25T10:35:53.639Z,1.00
2023-11-25T10:38:43.394Z,1.10
2023-11-25T10:41:32.447Z,1.00
2023-11-25T10:44:21.857Z,1.30
2023-11-25T10:47:11.997Z,1.10
2023-11-25T10:50:02.588Z,1.07
2023-11-25T10:52:53.615Z,1.20
2023-11-25T10:55:44.375Z,1.00
2023-11-25T10:58:36.710Z,0.97
2023-11-25T11:01:27.270Z,0.80
2023-11-25T11:04:24.520Z,0.90
2023-11-25T11:07:17.599Z,1.07
2023-11-25T11:10:12.043Z,1.00
2023-11-25T11:13:05.436Z,1.30
2023-11-25T11:15:59.565Z,0.93
2023-11-25T11:18:48.253Z,1.20
2023-11-25T11:21:40.150Z,0.93
2023-11-25T11:24:34.503Z,1.00
2023-11-25T11:27:31.173Z,1.03
2023-11-25T11:30:26.989Z,1.00
2023-11-25T11:33:16.292Z,0.90
2023-11-25T11:36:07.730Z,1.00
2023-11-25T11:38:57.411Z,0.80
2023-11-25T11:41:46.006Z,0.90
2023-11-25T11:44:36.872Z,0.90
2023-11-25T11:47:26.645Z,1.10
2023-11-25T11:50:19.535Z,1.00
2023-11-25T11:53:15.393Z,1.00
2023-11-25T11:56:04.045Z,0.80
2023-11-25T11:59:04.601Z,0.77
2023-11-25T12:01:54.586Z,1.07
2023-11-25T12:04:44.883Z,0.73
2023-11-25T12:07:33.611Z,0.90
2023-11-25T12:10:22.392Z,0.87
2023-11-25T12:13:12.947Z,0.87
2023-11-25T12:16:02.778Z,0.90
2023-11-25T12:18:52.625Z,0.80
2023-11-25T12:21:41.250Z,0.90
2023-11-25T12:24:29.891Z,0.90
2023-11-25T12:27:20.668Z,0.87
2023-11-25T12:30:11.043Z,0.87
2023-11-25T12:32:59.661Z,0.80
2023-11-25T12:35:50.482Z,0.93
2023-11-25T12:38:39.203Z,0.80
2023-11-25T12:41:28.171Z,0.80
2023-11-25T12:44:17.825Z,0.67
2023-11-25T12:47:08.608Z,0.73
2023-11-25T12:50:06.020Z,0.80
2023-11-25T12:53:09.650Z,0.80
2023-11-25T12:55:58.873Z,0.80
2023-11-25T12:58:47.767Z,0.83
2023-11-25T13:01:37.732Z,0.90
2023-11-25T13:04:27.723Z,0.80
2023-11-25T13:07:31.454Z,0.93
2023-11-25T13:10:21.253Z,1.00
2023-11-25T13:13:09.902Z,1.00
2023-11-25T13:15:59.407Z,0.90
2023-11-25T13:18:51.472Z,1.00
2023-11-25T13:21:41.498Z,1.00
2023-11-25T13:24:29.931Z,0.93
2023-11-25T13:27:19.973Z,0.83
2023-11-25T13:30:09.258Z,0.80
2023-11-25T13:32:57.650Z,1.10
2023-11-25T13:35:46.610Z,0.90
2023-11-25T13:38:35.708Z,1.43
2023-11-25T13:41:24.205Z,1.50
2023-11-25T13:44:14.116Z,2.00
2023-11-25T13:47:02.604Z,2.27
2023-11-25T13:49:51.052Z,2.23
2023-11-25T13:52:40.064Z,2.63
2023-11-25T13:55:28.632Z,2.40
2023-11-25T13:58:18.300Z,2.43
2023-11-25T14:01:08.101Z,2.90
2023-11-25T14:03:57.830Z,2.40
2023-11-25T14:06:46.309Z,2.50
2023-11-25T14:09:34.646Z,2.63
2023-11-25T14:12:23.263Z,2.00
2023-11-25T14:15:11.875Z,2.60
2023-11-25T14:18:02.467Z,2.30
2023-11-25T14:20:50.894Z,2.27
2023-11-25T14:23:39.476Z,2.10
2023-11-25T14:26:28.178Z,1.97
2023-11-25T14:29:16.526Z,1.90
2023-11-25T14:32:05.483Z,1.90
2023-11-25T14:34:55.465Z,2.00
2023-11-25T14:37:45.317Z,1.67
2023-11-25T14:40:37.422Z,1.80
2023-11-25T14:43:26.360Z,1.90
2023-11-25T14:46:14.947Z,1.57
2023-11-25T14:49:06.200Z,1.73
2023-11-25T14:51:56.165Z,1.63
2023-11-25T14:54:44.747Z,1.50
2023-11-25T14:57:33.347Z,1.77
2023-11-25T15:00:23.877Z,1.53
2023-11-25T15:03:12.249Z,1.83
2023-11-25T15:06:00.842Z,1.30
2023-11-25T15:08:50.806Z,1.50
2023-11-25T15:11:41.376Z,1.20
2023-11-25T15:14:31.676Z,1.30
2023-11-25T15:17:20.126Z,1.30
2023-11-25T15:20:10.040Z,1.53
2023-11-25T15:23:01.044Z,1.30
2023-11-25T15:25:51.366Z,1.50
2023-11-25T15:28:40.918Z,1.07
2023-11-25T15:31:29.437Z,1.13
2023-11-25T15:34:19.089Z,1.17
2023-11-25T15:37:07.463Z,0.90
2023-11-25T15:39:56.077Z,1.00
2023-11-25T15:42:48.591Z,1.13
2023-11-25T15:45:37.583Z,1.00
2023-11-25T15:48:26.148Z,1.33
2023-11-25T15:51:14.717Z,1.17
2023-11-25T15:54:03.498Z,0.93
2023-11-25T15:56:52.063Z,1.23
2023-11-25T15:59:44.487Z,1.37
2023-11-25T16:02:32.878Z,1.70
2023-11-25T16:05:23.291Z,1.30
2023-11-25T16:08:11.933Z,1.37
2023-11-25T16:11:00.649Z,1.30
2023-11-25T16:13:49.102Z,1.10
2023-11-25T16:16:39.096Z,0.97
2023-11-25T16:19:27.723Z,1.10
2023-11-25T16:22:16.434Z,1.20
2023-11-25T16:25:07.020Z,1.00
2023-11-25T16:27:56.001Z,1.30
2023-11-25T16:30:44.433Z,1.10
2023-11-25T16:33:34.288Z,1.20
2023-11-25T16:36:22.857Z,1.23
2023-11-25T16:39:11.662Z,1.23
2023-11-25T16:42:00.249Z,1.40
2023-11-25T16:44:49.124Z,1.20
2023-11-25T16:47:38.059Z,0.90
2023-11-25T16:50:28.055Z,1.50
2023-11-25T16:53:18.083Z,1.17
2023-11-25T16:56:07.218Z,1.13
2023-11-25T16:58:55.712Z,1.00
2023-11-25T17:01:44.338Z,1.20
2023-11-25T17:04:33.348Z,0.90
2023-11-25T17:07:23.306Z,1.20
2023-11-25T17:10:11.750Z,1.10
2023-11-25T17:13:00.242Z,1.20
2023-11-25T17:15:48.587Z,1.10
2023-11-25T17:18:37.005Z,1.20
2023-11-25T17:21:25.484Z,1.00
2023-11-25T17:24:15.405Z,1.33
2023-11-25T17:27:03.870Z,1.13
2023-11-25T17:29:52.972Z,1.20
2023-11-25T17:32:41.784Z,0.97
2023-11-25T17:35:30.330Z,1.10
2023-11-25T17:38:20.154Z,0.90
2023-11-25T17:41:10.045Z,1.00
2023-11-25T17:44:00.178Z,1.10
2023-11-25T17:46:48.581Z,0.93
2023-11-25T17:49:37.128Z,0.93
2023-11-25T17:52:25.603Z,1.47
2023-11-25T17:55:14.002Z,1.10
2023-11-25T17:58:03.832Z,0.93
2023-11-25T18:00:54.394Z,1.20
2023-11-25T18:03:44.025Z,1.00
2023-11-25T18:06:32.497Z,1.30
2023-11-25T18:09:22.085Z,1.00
2023-11-25T18:12:10.597Z,1.13
2023-11-25T18:15:00.773Z,0.90
2023-11-25T18:17:49.476Z,1.20
2023-11-25T18:20:38.510Z,0.97
2023-11-25T18:23:27.762Z,1.30
2023-11-25T18:26:17.403Z,1.10
2023-11-25T18:29:07.018Z,1.30
2023-11-25T18:31:57.429Z,1.40
2023-11-25T18:34:48.077Z,1.10
2023-11-25T18:37:36.862Z,1.00
2023-11-25T18:40:26.369Z,1.17
2023-11-25T18:43:15.554Z,1.13
2023-11-25T18:46:06.984Z,1.10
2023-11-25T18:48:57.322Z,1.67
2023-11-25T18:51:45.850Z,0.97
2023-11-25T18:54:34.449Z,1.17
2023-11-25T18:57:22.936Z,1.40
2023-11-25T19:00:13.688Z,1.23
2023-11-25T19:03:03.442Z,1.10
2023-11-25T19:05:53.213Z,1.40
2023-11-25T19:08:41.825Z,1.30
2023-11-25T19:11:30.411Z,1.30
2023-11-25T19:14:18.881Z,1.07
2023-11-25T19:17:09.122Z,1.30
2023-11-25T19:19:57.973Z,1.37
2023-11-25T19:22:48.115Z,1.13
2023-11-25T19:25:37.591Z,1.00
2023-11-25T19:28:26.072Z,1.10
2023-11-25T19:31:14.512Z,1.10
2023-11-25T19:34:02.892Z,1.00
2023-11-25T19:36:51.419Z,1.00
2023-11-25T19:39:43.270Z,1.00
2023-11-25T19:42:31.915Z,1.00
2023-11-25T19:45:20.833Z,1.10
2023-11-25T19:48:09.342Z,1.30
2023-11-25T19:50:58.207Z,0.93
2023-11-25T19:53:50.725Z,1.07
2023-11-25T19:56:42.084Z,1.10
2023-11-25T19:59:31.421Z,1.00
2023-11-25T20:02:19.919Z,1.20
2023-11-25T20:05:09.410Z,1.10
2023-11-25T20:07:58.027Z,1.17
2023-11-25T20:10:47.657Z,1.10
2023-11-25T20:13:37.580Z,1.30
2023-11-25T20:16:32.413Z,1.30
2023-11-25T20:19:21.172Z,1.10
2023-11-25T20:22:09.673Z,1.00
2023-11-25T20:25:00.925Z,1.23
2023-11-25T20:27:49.561Z,1.23
2023-11-25T20:30:39.422Z,1.10
2023-11-25T20:33:28.245Z,1.07
2023-11-25T20:36:16.697Z,1.13
2023-11-25T20:39:05.316Z,1.10
2023-11-25T20:41:54.319Z,1.00
2023-11-25T20:44:42.608Z,0.83
2023-11-25T20:47:32.499Z,1.00
2023-11-25T20:50:21.152Z,1.00
2023-11-25T20:53:09.710Z,0.83
2023-11-25T20:55:58.209Z,1.00
2023-11-25T20:58:46.679Z,0.97
2023-11-25T21:01:35.162Z,1.10
2023-11-25T21:04:25.138Z,0.90
2023-11-25T21:07:13.492Z,1.00
2023-11-25T21:10:02.010Z,0.83
2023-11-25T21:12:50.472Z,1.03
2023-11-25T21:15:38.798Z,1.00
2023-11-25T21:18:27.272Z,0.80
2023-11-25T21:21:18.857Z,0.90
2023-11-25T21:24:08.616Z,1.10
2023-11-25T21:26:57.358Z,0.90
2023-11-25T21:29:46.321Z,1.10
2023-11-25T21:32:37.130Z,1.07
2023-11-25T21:35:27.047Z,1.03
2023-11-25T21:38:17.047Z,0.80
2023-11-25T21:41:07.479Z,1.00
2023-11-25T21:43:56.003Z,0.80
2023-11-25T21:46:44.430Z,0.90
2023-11-25T21:49:33.353Z,1.00
2023-11-25T21:52:21.785Z,0.83
2023-11-25T21:55:11.880Z,0.97
2023-11-25T21:58:00.386Z,0.70
2023-11-25T22:00:48.728Z,0.90
2023-11-25T22:03:41.982Z,1.10
2023-11-25T22:06:31.007Z,0.97
2023-11-25T22:09:20.190Z,0.83
2023-11-25T22:12:10.332Z,0.80
2023-11-25T22:14:59.177Z,0.93
2023-11-25T22:17:48.630Z,1.00
2023-11-25T22:20:37.295Z,0.90
2023-11-25T22:23:25.815Z,0.87
2023-11-25T22:26:20.845Z,1.00
2023-11-25T22:29:10.894Z,1.00
2023-11-25T22:31:59.629Z,0.90
2023-11-25T22:34:48.384Z,1.10
2023-11-25T22:37:37.899Z,1.10
2023-11-25T22:40:26.658Z,0.90
2023-11-25T22:43:16.434Z,0.90
2023-11-25T22:46:06.663Z,0.80
2023-11-25T22:48:55.393Z,1.20
2023-11-25T22:51:43.914Z,0.90
2023-11-25T22:54:34.661Z,0.70
2023-11-25T22:57:23.502Z,0.90
2023-11-25T23:00:28.932Z,0.80
2023-11-25T23:03:19.166Z,0.90
2023-11-25T23:06:10.512Z,1.00
2023-11-25T23:09:00.373Z,0.90
2023-11-25T23:11:49.100Z,0.77
2023-11-25T23:14:39.770Z,0.70
2023-11-25T23:17:28.943Z,0.73
2023-11-25T23:20:18.932Z,0.70
2023-11-25T23:23:08.074Z,0.90
2023-11-25T23:25:57.941Z,0.70
2023-11-25T23:28:46.658Z,0.60
2023-11-25T23:31:35.020Z,0.70
2023-11-25T23:34:23.938Z,0.80
2023-11-25T23:37:17.351Z,0.80
2023-11-25T23:40:07.533Z,0.80
2023-11-25T23:42:56.446Z,0.70
2023-11-25T23:45:45.219Z,0.90
2023-11-25T23:48:33.766Z,0.90
2023-11-25T23:51:22.615Z,0.80
2023-11-25T23:54:12.313Z,0.80
2023-11-25T23:57:02.064Z,0.80
2023-11-25T23:59:50.532Z,0.70
